Time;durP1;ratioP1;P1;durP2;ratioP2;P2;SDS_P1;SDS_P2;PMS_P1;PMS_P2;Temp;Humidity;BMP_temperature;BMP_pressure;BME280_temperature;BME280_humidity;BME280_pressure;Samples;Min_cycle;Max_cycle;Signal;HPM_P1;HPM_P2
2021/09/04 06:15:52;;;;;;;;;13.00;13.00;;;;;;;;6326190;22;1522052;-89
2021/09/04 06:31:04;;;;;;;;;16.00;16.00;;;;;;;;6268950;22;47257;-85
2021/09/04 07:13:34;;;;;;;;;10.00;10.00;;;;;;;;5782760;24;47115;-90
2021/09/04 07:19:24;;;;;;;;;;;;;;;;;;;;;
2021/09/04 07:43:34;;;;;;;;;15.25;14.00;;;;;;;;6179729;23;46827;-93
2021/09/04 07:46:00;;;;;;;;;11.50;11.50;;;;;;;;6176365;23;46787;-90
2021/09/04 07:54:32;;;;;;;;;13.75;11.50;;;;;;;;6032389;23;46892;-93
2021/09/04 07:57:10;;;;;;;;;;;;;;;;;;;;;
2021/09/04 08:00:02;;;;;;;;;16.75;15.00;;;;;;;;6090210;23;76743;-88
2021/09/04 08:02:30;;;;;;;;;10.25;10.25;;;;;;;;6079547;23;46910;-88
2021/09/04 08:08:53;;;;;;;;;11.75;11.25;;;;;;;;6129626;22;46707;-90
2021/09/04 08:11:21;;;;;;;;;16.25;15.25;;;;;;;;6143679;23;47176;-89
2021/09/04 10:51:44;;;;;;;;;5.00;5.00;;;;;;;;6339671;22;47028;-82
2021/09/04 10:54:39;;;;;;;;;;;;;;;;;;;;;
2021/09/04 10:57:38;;;;;;;;;5.25;4.00;;;;;;;;6369990;22;68290;-82
2021/09/04 20:26:38;;;;;;;;;17.00;13.50;;;;;;;;6337273;22;47014;-83
2021/09/04 20:29:15;;;;;;;;;18.50;14.25;;;;;;;;6342442;22;49205;-82
2021/09/04 20:31:51;;;;;;;;;18.25;14.25;;;;;;;;6371258;22;46889;-82
2021/09/04 20:35:04;;;;;;;;;;;;;;;;;;;;;
2021/09/04 20:37:27;;;;;;;;;18.00;15.50;;;;;;;;6365959;22;47776;-82
2021/09/04 20:40:28;;;;;;;;;;;;;;;;;;;;;
2021/09/04 20:46:15;;;;;;;;;14.25;12.75;;;;;;;;6310275;22;46933;-82
2021/09/04 20:52:35;;;;;;;;;;;;;;;;;;;;;
2021/09/04 20:54:55;;;;;;;;;12.00;10.50;;;;;;;;6347378;22;46897;-81
2021/09/04 20:57:24;;;;;;;;;14.50;13.25;;;;;;;;6370541;22;46980;-81
2021/09/04 20:59:59;;;;;;;;;;;;;;;;;;;;;
2021/09/04 21:19:18;;;;;;;;;14.25;12.50;;;;;;;;5948498;23;46806;-81
2021/09/04 21:25:37;;;;;;;;;;;;;;;;;;;;;
2021/09/04 21:42:01;;;;;;;;;7.75;6.75;;;;;;;;6366273;22;46658;-82
2021/09/04 21:50:28;;;;;;;;;;;;;;;;;;;;;
2021/09/04 21:53:16;;;;;;;;;19.50;16.00;;;;;;;;6369731;22;74600;-81
2021/09/04 21:59:41;;;;;;;;;;;;;;;;;;;;;
2021/09/04 22:02:08;;;;;;;;;;;;;;;;;;;;;
2021/09/04 22:04:36;;;;;;;;;15.00;14.75;;;;;;;;6369583;22;74362;-82
2021/09/04 22:07:02;;;;;;;;;20.25;19.25;;;;;;;;6342240;22;46892;-82
2021/09/04 22:10:15;;;;;;;;;;;;;;;;;;;;;
2021/09/04 22:12:53;;;;;;;;;;;;;;;;;;;;;
2021/09/04 22:15:42;;;;;;;;;21.50;21.25;;;;;;;;6369918;22;74979;-82
2021/09/04 22:40:20;;;;;;;;;15.50;15.50;;;;;;;;6121730;23;47096;-82
2021/09/04 22:43:11;;;;;;;;;18.50;17.00;;;;;;;;6229767;22;46881;-82
2021/09/04 22:45:38;;;;;;;;;19.50;13.75;;;;;;;;6338954;22;47066;-82
2021/09/04 22:48:04;;;;;;;;;17.50;15.25;;;;;;;;6370818;22;47830;-82
2021/09/04 22:50:33;;;;;;;;;17.00;16.50;;;;;;;;6370569;22;46822;-82
2021/09/04 22:52:58;;;;;;;;;21.25;19.50;;;;;;;;6370374;22;46885;-82
2021/09/04 22:55:23;;;;;;;;;17.75;17.75;;;;;;;;6341768;22;47060;-82
2021/09/04 22:57:49;;;;;;;;;16.25;15.75;;;;;;;;6370558;22;47577;-82
2021/09/04 23:00:15;;;;;;;;;18.50;16.00;;;;;;;;6370772;22;47005;-82
2021/09/04 23:02:40;;;;;;;;;19.25;18.00;;;;;;;;6370944;22;46945;-82
2021/09/04 23:05:06;;;;;;;;;17.25;17.00;;;;;;;;6342386;22;47098;-82
2021/09/04 23:07:31;;;;;;;;;16.75;15.25;;;;;;;;6341788;22;49151;-82
2021/09/04 23:09:57;;;;;;;;;14.25;13.00;;;;;;;;6341867;22;47003;-82
2021/09/04 23:12:23;;;;;;;;;20.25;17.00;;;;;;;;6370789;22;46929;-82
2021/09/04 23:14:49;;;;;;;;;16.25;14.25;;;;;;;;6370901;22;46815;-82
2021/09/04 23:17:14;;;;;;;;;15.25;13.00;;;;;;;;6370339;22;46816;-82
2021/09/04 23:19:40;;;;;;;;;21.50;19.25;;;;;;;;6370427;22;46899;-82
2021/09/04 23:22:07;;;;;;;;;19.00;15.75;;;;;;;;6370257;22;46843;-82
2021/09/04 23:24:33;;;;;;;;;22.75;19.75;;;;;;;;6370635;22;46686;-82
2021/09/04 23:27:01;;;;;;;;;20.50;18.25;;;;;;;;6341960;22;48661;-82
2021/09/04 23:29:29;;;;;;;;;17.25;12.25;;;;;;;;6341064;22;46863;-82
2021/09/04 23:31:54;;;;;;;;;13.50;12.75;;;;;;;;6342430;22;46755;-82
2021/09/04 23:34:20;;;;;;;;;19.00;16.00;;;;;;;;6371615;22;46734;-82
2021/09/04 23:36:45;;;;;;;;;18.00;16.50;;;;;;;;6371311;22;46962;-82
2021/09/04 23:39:10;;;;;;;;;16.00;14.50;;;;;;;;6371619;22;46742;-82
2021/09/04 23:41:36;;;;;;;;;16.00;14.25;;;;;;;;6371377;22;46783;-82
2021/09/04 23:44:01;;;;;;;;;16.50;13.75;;;;;;;;6372112;22;46684;-82
2021/09/04 23:46:34;;;;;;;;;16.25;16.25;;;;;;;;6371787;22;47664;-82
2021/09/04 23:49:00;;;;;;;;;20.25;16.25;;;;;;;;6371858;22;46826;-82
2021/09/04 23:51:28;;;;;;;;;17.50;16.75;;;;;;;;6371469;22;46725;-82
2021/09/04 23:53:56;;;;;;;;;12.00;10.25;;;;;;;;6343243;22;47004;-82
2021/09/04 23:56:24;;;;;;;;;18.25;17.00;;;;;;;;6342652;22;49158;-82
2021/09/04 23:58:55;;;;;;;;;16.25;15.00;;;;;;;;6371506;22;47356;-82
